Thursday, September 20, 2018, 4:43 PM EDT
Back to Local

KBVY, Beverly Municipal Airport

Location: Danvers, MA, United States Lat: 42.583
Local Time: 4:43 PM EDT (20:43 GMT) Lon: -70.917
Time Zone: US/Eastern Elev: 108 ft

Show me the last for .
Show Decoded

2018-09-20 15:53 METAR KBVY 201953Z VRB06KT 10SM FEW022 SCT047 18/13 A3025 RMK AO2 SLP238
                 T01780128 =
2018-09-20 14:53 METAR KBVY 201853Z 07010KT 10SM SCT021 BKN047 18/12 A3026 RMK AO2 SLP241
                 T01780122 =
2018-09-20 13:53 METAR KBVY 201753Z 08009KT 10SM FEW019 SCT027 BKN035 18/13 A3026 RMK AO2 SLP241
                 60001 T01780133 10178 20150 58004 =
2018-09-20 13:46 METAR KBVY 201746Z 05008KT 10SM SCT025 BKN035 BKN043 18/13 A3026 RMK AO2
                 T01780133 =
2018-09-20 13:05 METAR KBVY 201705Z 06007KT 10SM BKN026 BKN038 OVC048 17/13 A3027 RMK AO2
                 T01720128 =
2018-09-20 12:53 METAR KBVY 201653Z 05008KT 10SM SCT026 BKN038 BKN048 17/13 A3027 RMK AO2 SLP246
                 T01720128 =
2018-09-20 12:23 METAR KBVY 201623Z 05010KT 10SM FEW016 SCT023 17/13 A3027 RMK AO2 T01720133 =
2018-09-20 11:53 METAR KBVY 201553Z 04008KT 10SM BKN020 BKN025 17/13 A3028 RMK AO2 SLP248
                 T01720133 =
2018-09-20 10:53 METAR KBVY 201453Z 03010G16KT 10SM FEW008 BKN024 OVC030 16/14 A3027 RMK AO2
                 RAE02B31E47 SLP245 P0001 60001 T01610144 51020 =
2018-09-20 10:44 METAR KBVY 201444Z 04007G15KT 4SM -RA BR FEW008 BKN022 OVC033 16/14 A3027 RMK
                 AO2 RAE02B31 P0001 T01560144 =
2018-09-20 10:33 METAR KBVY 201433Z 04010G16KT 2 1/2SM -RA BR SCT007 BKN024 OVC032 16/14 A3028
                 RMK AO2 RAE02B31 P0001 T01560144 =
2018-09-20 10:14 METAR KBVY 201414Z 03008KT 3SM BR BKN008 BKN012 OVC023 16/15 A3027 RMK AO2 RAE02
                 P0001 T01610150 =
2018-09-20 10:11 METAR KBVY 201411Z 05008KT 2 1/2SM BR SCT008 BKN012 OVC023 16/14 A3026 RMK AO2
                 RAE02 P0001 T01560144 =
2018-09-20 09:53 METAR KBVY 201353Z 03008KT 3SM -RA BR BKN008 BKN017 OVC024 16/14 A3026 RMK AO2
                 RAB01E11B25E34B53 SLP242 P0000 T01560144 =
2018-09-20 09:12 METAR KBVY 201312Z 05008KT 9SM BKN009 BKN013 OVC029 16/14 A3024 RMK AO2 RAB01E11
                 P0000 T01560144 =
2018-09-20 08:53 METAR KBVY 201253Z 02007KT 9SM SCT007 BKN012 OVC028 16/15 A3023 RMK AO2
                 RAB10E21B32E43 SLP232 P0000 T01610150 =
2018-09-20 08:37 METAR KBVY 201237Z 03006KT 3SM -RA BR SCT008 BKN014 OVC028 15/14 A3022 RMK AO2
                 RAB10E21B32 P0000 T01500144 =
2018-09-20 08:22 METAR KBVY 201222Z 03007KT 7SM SCT010 BKN013 OVC020 15/14 A3022 RMK AO2 RAB10E21
                 P0000 T01500144 =
2018-09-20 07:53 METAR KBVY 201153Z 02005KT 6SM BR FEW012 BKN029 OVC035 15/14 A3021 RMK AO2
                 SLP225 P0001 60003 70003 T01500139 10156 20150 53021 =
2018-09-20 06:53 METAR KBVY 201053Z 03007KT 6SM BR BKN015 BKN022 OVC029 15/14 A3017 RMK AO2
                 RAB09E53 SLP213 P0000 T01500139 =
2018-09-20 05:53 METAR KBVY 200953Z AUTO 03008KT 10SM FEW015 BKN022 OVC030 15/13 A3015 RMK AO2
                 SLP207 T01500133 =
2018-09-20 04:53 METAR KBVY 200853Z AUTO 01006KT 10SM SCT014 BKN028 OVC048 15/14 A3015 RMK AO2
                 RAE36 SLP204 P0002 60002 T01500139 51008 =
2018-09-20 03:53 METAR KBVY 200753Z AUTO 04007KT 7SM -RA BKN015 BKN021 OVC042 16/14 A3014 RMK AO2
                 RAB45 SLP201 P0000 T01560139 =
2018-09-20 03:23 METAR KBVY 200723Z AUTO 02005KT 10SM SCT012 BKN020 OVC026 16/14 A3014 RMK AO2
                 T01560139 =
2018-09-20 02:53 METAR KBVY 200653Z AUTO 03006KT 10SM BKN012 OVC018 16/14 A3013 RMK AO2 SLP198
                 T01560139 =
2018-09-20 02:39 METAR KBVY 200639Z AUTO 04008KT 10SM BKN013 BKN019 OVC025 16/14 A3012 RMK AO2
                 T01560139 =
2018-09-20 02:02 METAR KBVY 200602Z AUTO 04006KT 10SM FEW013 BKN021 BKN038 16/14 A3012 RMK AO2
                 T01560139 =
2018-09-20 01:53 METAR KBVY 200553Z AUTO 03005KT 10SM FEW015 SCT021 BKN034 16/14 A3012 RMK AO2
                 RAE04B30E39 SLP196 P0000 60000 T01560139 10161 20150 51012 =
2018-09-20 01:32 METAR KBVY 200532Z AUTO 03003KT 10SM -RA SCT016 BKN030 OVC036 16/14 A3012 RMK
                 AO2 RAE04B30 P0000 T01560139 =
2018-09-20 01:20 METAR KBVY 200520Z AUTO VRB04KT 10SM FEW016 BKN028 OVC035 16/14 A3012 RMK AO2
                 RAE04 P0000 T01560139 =
2018-09-20 01:11 METAR KBVY 200511Z AUTO 02004KT 10SM FEW017 SCT026 OVC037 16/13 A3012 RMK AO2
                 RAE04 P0000 T01560133 =
2018-09-20 00:53 METAR KBVY 200453Z AUTO 36004KT 9SM -RA FEW017 BKN027 OVC037 16/13 A3012 RMK AO2
                 RAB53 SLP195 P0000 T01560133 402000150 =
2018-09-19 23:53 METAR KBVY 200353Z AUTO 36004KT 10SM FEW019 BKN026 16/13 A3010 RMK AO2 SLP189
                 T01560133 =
2018-09-19 23:24 METAR KBVY 200324Z AUTO 01004KT 10SM BKN025 15/13 A3009 RMK AO2 T01500128 =
2018-09-19 22:53 METAR KBVY 200253Z AUTO VRB04KT 10SM BKN050 16/13 A3009 RMK AO2 SLP184 T01560128
                 51007 =
2018-09-19 21:53 METAR KBVY 200153Z AUTO 05005KT 10SM BKN031 OVC050 16/13 A3009 RMK AO2 SLP184
                 T01610128 =
2018-09-19 21:06 METAR KBVY 200106Z AUTO 04005KT 10SM FEW019 SCT024 OVC032 16/13 A3008 RMK AO2
                 T01610133 =
2018-09-19 20:53 METAR KBVY 200053Z 02004KT 10SM SCT021 BKN027 OVC032 16/13 A3008 RMK AO2 SLP181
                 T01610133 =
2018-09-19 19:53 METAR KBVY 192353Z 06003KT 10SM OVC028 16/13 A3007 RMK AO2 SLP176 T01610133
                 10189 20156 51026 =
2018-09-19 19:38 METAR KBVY 192338Z 05005KT 10SM BKN029 OVC036 16/13 A3006 RMK AO2 T01610133 =
2018-09-19 18:53 METAR KBVY 192253Z 05004KT 10SM SCT028 OVC050 16/13 A3004 RMK AO2 SLP167
                 T01610133 =
2018-09-19 18:00 METAR KBVY 192200Z 02004KT 10SM BKN025 OVC050 16/13 A3003 RMK AO2 T01610133 =
2018-09-19 17:53 METAR KBVY 192153Z 03005KT 10SM SCT025 OVC050 16/13 A3003 RMK AO2 SLP165
                 T01610128 =
2018-09-19 17:13 METAR KBVY 192113Z 04008KT 10SM SCT017 OVC050 17/13 A3000 RMK AO2 T01670128 =
2018-09-19 16:53 METAR KBVY 192053Z 05008KT 10SM BKN017 OVC050 17/13 A2999 RMK AO2 SLP150
                 T01670133 53005 =

Support USWX by starting your Amazon purchase here.